createdAt,value
2022-10-04T00:01:45.311Z,10.70
2022-10-04T00:04:15.644Z,10.70
2022-10-04T00:06:59.809Z,10.70
2022-10-04T00:09:43.504Z,10.70
2022-10-04T00:12:21.532Z,10.70
2022-10-04T00:14:50.981Z,10.70
2022-10-04T00:17:24.449Z,10.70
2022-10-04T00:19:52.392Z,10.70
2022-10-04T00:22:25.056Z,10.70
2022-10-04T00:25:21.496Z,10.70
2022-10-04T00:28:19.658Z,10.70
2022-10-04T00:31:09.520Z,10.70
2022-10-04T00:33:36.843Z,10.30
2022-10-04T00:36:24.041Z,10.70
2022-10-04T00:39:08.670Z,10.70
2022-10-04T00:41:47.823Z,10.70
2022-10-04T00:44:43.533Z,10.70
2022-10-04T00:47:22.532Z,10.70
2022-10-04T00:49:56.966Z,10.70
2022-10-04T00:52:28.795Z,10.60
2022-10-04T00:55:00.609Z,10.70
2022-10-04T00:57:32.204Z,10.70
2022-10-04T01:00:18.062Z,10.70
2022-10-04T01:03:01.520Z,10.70
2022-10-04T01:05:42.582Z,10.70
2022-10-04T01:08:16.180Z,10.70
2022-10-04T01:10:51.927Z,10.80
2022-10-04T01:13:30.362Z,10.60
2022-10-04T01:16:03.383Z,10.70
2022-10-04T01:18:33.620Z,10.70
2022-10-04T01:21:18.990Z,10.60
2022-10-04T01:23:54.042Z,10.60
2022-10-04T01:26:29.285Z,10.60
2022-10-04T01:29:01.031Z,10.50
2022-10-04T01:31:29.665Z,10.50
2022-10-04T01:33:57.409Z,10.40
2022-10-04T01:36:24.530Z,10.40
2022-10-04T01:38:51.971Z,10.50
2022-10-04T01:41:25.667Z,10.50
2022-10-04T01:43:59.015Z,10.50
2022-10-04T01:46:36.616Z,10.40
2022-10-04T01:49:10.271Z,10.40
2022-10-04T01:51:45.694Z,10.50
2022-10-04T01:54:18.574Z,10.40
2022-10-04T01:56:52.045Z,10.40
2022-10-04T01:59:30.540Z,10.40
2022-10-04T02:02:17.337Z,10.40
2022-10-04T02:04:48.284Z,10.50
2022-10-04T02:07:16.617Z,10.50
2022-10-04T02:09:46.660Z,10.50
2022-10-04T02:12:18.861Z,10.50
2022-10-04T02:14:55.818Z,10.40
2022-10-04T02:17:28.697Z,10.50
2022-10-04T02:19:56.941Z,10.40
2022-10-04T02:22:25.585Z,10.40
2022-10-04T02:24:56.726Z,10.40
2022-10-04T02:27:31.544Z,10.50
2022-10-04T02:30:04.406Z,10.40
2022-10-04T02:32:52.780Z,10.50
2022-10-04T02:35:20.512Z,10.40
2022-10-04T02:37:58.898Z,10.40
2022-10-04T02:40:35.359Z,10.40
2022-10-04T02:43:19.366Z,10.40
2022-10-04T02:46:03.050Z,10.50
2022-10-04T02:48:50.737Z,10.40
2022-10-04T02:51:27.079Z,10.40
2022-10-04T02:54:12.561Z,10.40
2022-10-04T02:56:40.346Z,10.30
2022-10-04T02:59:08.072Z,10.40
2022-10-04T03:01:54.058Z,10.40
2022-10-04T03:04:41.399Z,10.40
2022-10-04T03:07:09.563Z,10.30
2022-10-04T03:09:40.419Z,10.30
2022-10-04T03:12:12.687Z,10.30
2022-10-04T03:14:40.439Z,10.20
2022-10-04T03:17:08.369Z,10.20
2022-10-04T03:19:37.409Z,10.10
2022-10-04T03:22:13.593Z,10.10
2022-10-04T03:24:50.499Z,10.10
2022-10-04T03:27:25.253Z,10.20
2022-10-04T03:29:58.195Z,9.40
2022-10-04T03:32:27.307Z,10.20
2022-10-04T03:34:59.992Z,10.20
2022-10-04T03:37:29.672Z,10.20
2022-10-04T03:39:58.015Z,10.20
2022-10-04T03:42:31.636Z,10.10
2022-10-04T03:45:02.628Z,10.20
2022-10-04T03:47:38.762Z,10.20
2022-10-04T03:50:12.402Z,10.20
2022-10-04T03:52:44.283Z,10.20
2022-10-04T03:55:14.618Z,10.20
2022-10-04T03:57:41.943Z,10.30
2022-10-04T04:00:09.646Z,10.30
2022-10-04T04:02:48.100Z,10.30
2022-10-04T04:05:37.628Z,10.30
2022-10-04T04:08:12.582Z,10.30
2022-10-04T04:10:44.197Z,10.30
2022-10-04T04:13:23.534Z,10.30
2022-10-04T04:15:51.560Z,10.40
2022-10-04T04:18:24.488Z,10.40
2022-10-04T04:20:53.970Z,10.40
2022-10-04T04:23:50.477Z,10.40
2022-10-04T04:26:39.460Z,10.40
2022-10-04T04:29:22.834Z,10.40
2022-10-04T04:31:58.392Z,10.40
2022-10-04T04:34:37.708Z,10.40
2022-10-04T04:37:05.597Z,10.40
2022-10-04T04:40:11.245Z,10.50
2022-10-04T04:42:38.995Z,10.40
2022-10-04T04:45:25.813Z,10.40
2022-10-04T04:47:57.452Z,10.50
2022-10-04T04:50:30.646Z,10.50
2022-10-04T04:53:13.187Z,10.50
2022-10-04T04:56:03.355Z,10.50
2022-10-04T04:58:38.314Z,10.50
2022-10-04T05:01:31.800Z,10.50
2022-10-04T05:04:14.396Z,10.50
2022-10-04T05:06:44.609Z,10.50
2022-10-04T05:09:44.462Z,10.50
2022-10-04T05:12:27.508Z,10.50
2022-10-04T05:14:57.680Z,10.50
2022-10-04T05:17:29.577Z,10.50
2022-10-04T05:20:00.043Z,10.50
2022-10-04T05:22:28.943Z,10.50
2022-10-04T05:25:14.770Z,10.50
2022-10-04T05:27:45.072Z,10.60
2022-10-04T05:30:22.970Z,10.50
2022-10-04T05:33:02.561Z,10.50
2022-10-04T05:35:46.360Z,10.50
2022-10-04T05:38:39.981Z,10.50
2022-10-04T05:41:35.192Z,10.60
2022-10-04T05:45:19.825Z,10.60
2022-10-04T06:04:51.816Z,10.70
2022-10-04T06:11:54.706Z,10.70
2022-10-04T06:14:48.259Z,10.20
2022-10-04T06:18:05.247Z,10.80
2022-10-04T06:20:57.000Z,10.70
2022-10-04T06:23:37.222Z,10.70
2022-10-04T06:26:33.780Z,10.80
2022-10-04T06:29:14.963Z,10.80
2022-10-04T06:33:06.014Z,10.80
2022-10-04T06:36:15.645Z,10.80
2022-10-04T06:39:17.320Z,10.80
2022-10-04T06:47:55.789Z,10.90
2022-10-04T06:50:44.378Z,10.90
2022-10-04T06:53:33.960Z,11.10
2022-10-04T06:56:26.768Z,11.10
2022-10-04T06:59:51.978Z,11.10
2022-10-04T07:02:58.052Z,11.00
2022-10-04T07:06:18.604Z,11.00
2022-10-04T07:08:58.673Z,11.00
2022-10-04T07:22:04.100Z,11.00
2022-10-04T07:25:14.741Z,10.90
2022-10-04T08:03:18.829Z,10.90
2022-10-04T08:10:18.621Z,11.10
2022-10-04T08:20:50.428Z,14.10
2022-10-04T08:24:21.246Z,12.50
2022-10-04T08:27:39.031Z,11.30
2022-10-04T08:35:20.024Z,11.00
2022-10-04T09:01:25.397Z,11.40
2022-10-04T09:08:41.053Z,12.40
2022-10-04T09:11:23.479Z,11.60
2022-10-04T09:13:59.909Z,10.00
2022-10-04T09:20:26.393Z,11.70
2022-10-04T09:25:03.936Z,11.80
2022-10-04T09:30:42.758Z,10.40
2022-10-04T09:33:44.618Z,12.00
2022-10-04T09:36:42.607Z,12.10
2022-10-04T09:39:45.398Z,12.10
2022-10-04T09:43:03.863Z,12.10
2022-10-04T09:46:26.412Z,11.80
2022-10-04T09:55:48.228Z,12.10
2022-10-04T09:58:52.431Z,12.20
2022-10-04T10:06:14.027Z,12.80
2022-10-04T10:23:55.547Z,12.60
2022-10-04T10:41:45.080Z,12.90
2022-10-04T10:44:30.741Z,15.30
2022-10-04T10:47:41.687Z,15.10
2022-10-04T10:51:27.716Z,17.10
2022-10-04T10:54:52.157Z,18.10
2022-10-04T10:57:25.043Z,17.50
2022-10-04T11:00:26.651Z,17.50
2022-10-04T11:03:25.463Z,16.90
2022-10-04T11:06:30.464Z,16.50
2022-10-04T11:09:45.129Z,16.90
2022-10-04T11:12:50.498Z,18.50
2022-10-04T11:16:47.260Z,16.60
2022-10-04T11:19:34.960Z,15.60
2022-10-04T11:22:17.565Z,14.90
2022-10-04T11:25:08.196Z,16.70
2022-10-04T11:27:59.926Z,17.90
2022-10-04T11:31:54.307Z,18.70
2022-10-04T11:41:50.644Z,19.60
2022-10-04T11:44:34.405Z,18.30
2022-10-04T11:48:22.478Z,18.60
2022-10-04T11:50:55.384Z,18.50
2022-10-04T11:53:52.898Z,18.60
2022-10-04T11:56:35.537Z,18.30
2022-10-04T12:00:01.392Z,17.50
2022-10-04T12:02:47.956Z,17.50
2022-10-04T12:05:54.718Z,17.70
2022-10-04T12:08:52.231Z,17.40
2022-10-04T12:11:56.490Z,17.60
2022-10-04T12:14:25.237Z,18.20
2022-10-04T12:17:01.733Z,19.10
2022-10-04T12:20:11.239Z,18.90
2022-10-04T12:23:29.165Z,18.30
2022-10-04T12:26:25.744Z,17.50
2022-10-04T12:29:10.701Z,17.20
2022-10-04T12:31:45.303Z,17.30
2022-10-04T12:34:15.139Z,18.10
2022-10-04T12:37:24.508Z,17.90
2022-10-04T12:39:56.572Z,17.50
2022-10-04T12:42:38.212Z,17.00
2022-10-04T12:45:20.365Z,16.70
2022-10-04T12:47:49.987Z,16.70
2022-10-04T12:50:41.566Z,17.30
2022-10-04T12:53:24.331Z,17.20
2022-10-04T12:56:26.795Z,17.10
2022-10-04T12:59:04.454Z,17.20
2022-10-04T13:02:01.044Z,16.90
2022-10-04T13:04:53.275Z,16.60
2022-10-04T13:07:40.250Z,16.30
2022-10-04T13:10:25.865Z,16.50
2022-10-04T13:13:23.909Z,15.80
2022-10-04T13:19:10.041Z,14.10
2022-10-04T13:21:45.967Z,13.90
2022-10-04T13:24:42.308Z,13.80
2022-10-04T13:27:19.708Z,13.70
2022-10-04T13:30:05.824Z,13.70
2022-10-04T13:32:59.235Z,13.60
2022-10-04T13:35:49.250Z,13.50
2022-10-04T13:38:57.281Z,13.40
2022-10-04T13:41:28.040Z,13.40
2022-10-04T13:44:19.381Z,13.30
2022-10-04T13:46:50.821Z,13.30
2022-10-04T13:49:41.336Z,13.30
2022-10-04T13:52:50.806Z,13.40
2022-10-04T13:55:48.567Z,13.30
2022-10-04T13:58:18.887Z,13.30
2022-10-04T14:01:27.339Z,13.20
2022-10-04T14:04:16.102Z,13.10
2022-10-04T14:07:13.401Z,13.20
2022-10-04T14:09:55.654Z,13.10
2022-10-04T14:12:26.560Z,13.10
2022-10-04T14:15:19.304Z,13.00
2022-10-04T14:18:14.560Z,13.00
2022-10-04T14:21:19.136Z,12.90
2022-10-04T14:26:44.189Z,12.90
2022-10-04T14:29:52.259Z,12.80
2022-10-04T14:32:28.462Z,12.80
2022-10-04T14:35:05.800Z,12.80
2022-10-04T14:38:26.504Z,12.70
2022-10-04T14:41:31.924Z,12.70
2022-10-04T14:44:26.882Z,12.60
2022-10-04T14:46:57.100Z,12.60
2022-10-04T14:50:00.693Z,12.50
2022-10-04T14:52:52.445Z,12.30
2022-10-04T14:55:31.961Z,12.50
2022-10-04T14:58:15.230Z,12.30
2022-10-04T15:01:09.422Z,12.20
2022-10-04T15:03:56.105Z,12.20
2022-10-04T15:06:31.248Z,12.20
2022-10-04T15:09:19.144Z,12.10
2022-10-04T15:15:08.565Z,12.00
2022-10-04T15:17:51.619Z,12.00
2022-10-04T15:20:32.514Z,11.90
2022-10-04T15:23:09.008Z,11.90
2022-10-04T15:26:04.033Z,11.90
2022-10-04T15:28:45.029Z,11.80
2022-10-04T15:31:18.441Z,11.80
2022-10-04T15:33:57.763Z,11.70
2022-10-04T15:36:35.732Z,11.70
2022-10-04T15:39:17.995Z,11.70
2022-10-04T15:42:16.048Z,11.60
2022-10-04T15:45:01.831Z,11.40
2022-10-04T15:47:56.671Z,11.40
2022-10-04T15:50:34.796Z,11.40
2022-10-04T15:53:42.811Z,11.40
2022-10-04T15:56:36.800Z,11.30
2022-10-04T15:59:20.903Z,11.30
2022-10-04T16:01:55.669Z,11.20
2022-10-04T16:05:43.994Z,11.30
2022-10-04T16:08:22.622Z,11.30
2022-10-04T16:11:26.444Z,11.30
2022-10-04T16:14:01.309Z,11.20
2022-10-04T16:17:05.100Z,11.20
2022-10-04T16:23:34.165Z,11.10
2022-10-04T16:26:07.602Z,11.00
2022-10-04T16:28:55.484Z,11.00
2022-10-04T16:31:51.294Z,10.90
2022-10-04T16:34:45.986Z,10.90
2022-10-04T16:37:26.206Z,10.90
2022-10-04T16:40:06.659Z,10.90
2022-10-04T16:42:53.525Z,10.90
2022-10-04T16:45:38.750Z,10.80
2022-10-04T16:48:24.464Z,10.80
2022-10-04T16:51:34.799Z,10.70
2022-10-04T16:54:56.078Z,10.60
2022-10-04T16:57:37.846Z,10.50
2022-10-04T17:00:40.902Z,10.50
2022-10-04T17:06:17.131Z,10.40
2022-10-04T17:08:51.159Z,10.50
2022-10-04T17:11:30.744Z,10.40
2022-10-04T17:14:24.591Z,10.50
2022-10-04T17:17:03.686Z,10.50
2022-10-04T17:20:05.831Z,10.50
2022-10-04T17:23:06.812Z,10.50
2022-10-04T17:25:57.329Z,10.40
2022-10-04T17:28:40.419Z,10.30
2022-10-04T17:31:42.517Z,10.30
2022-10-04T17:34:39.296Z,10.20
2022-10-04T17:37:41.632Z,10.10
2022-10-04T17:40:29.484Z,10.00
2022-10-04T17:43:21.962Z,9.90
2022-10-04T17:46:08.638Z,9.90
2022-10-04T17:49:07.032Z,9.80
2022-10-04T17:52:13.765Z,9.70
2022-10-04T17:55:12.125Z,9.60
2022-10-04T17:57:50.607Z,9.40
2022-10-04T18:00:27.678Z,9.40
2022-10-04T18:03:22.698Z,9.20
2022-10-04T18:06:03.464Z,9.20
2022-10-04T18:08:44.241Z,9.20
2022-10-04T18:11:27.534Z,9.10
2022-10-04T18:14:05.068Z,9.00
2022-10-04T18:16:56.769Z,9.00
2022-10-04T18:19:50.312Z,8.90
2022-10-04T18:22:20.385Z,8.80
2022-10-04T18:25:05.074Z,8.90
2022-10-04T18:27:33.755Z,8.80
2022-10-04T18:30:21.892Z,8.80
2022-10-04T18:32:58.599Z,8.80
2022-10-04T18:35:39.640Z,8.70
2022-10-04T18:38:10.164Z,8.70
2022-10-04T18:40:55.549Z,8.60
2022-10-04T18:43:35.825Z,8.70
2022-10-04T18:46:21.947Z,8.70
2022-10-04T18:48:57.515Z,8.70
2022-10-04T18:51:26.000Z,8.70
2022-10-04T18:54:16.867Z,8.70
2022-10-04T18:57:18.561Z,8.60
2022-10-04T19:00:20.944Z,8.70
2022-10-04T19:03:19.240Z,8.70
2022-10-04T19:06:06.276Z,8.80
2022-10-04T19:08:37.903Z,8.70
2022-10-04T19:11:29.145Z,8.80
2022-10-04T19:14:24.984Z,8.80
2022-10-04T19:16:56.016Z,8.70
2022-10-04T19:19:35.660Z,8.70
2022-10-04T19:22:14.927Z,8.80
2022-10-04T19:25:18.209Z,8.80
2022-10-04T19:27:57.930Z,8.70
2022-10-04T19:30:34.587Z,8.70
2022-10-04T19:33:16.431Z,8.70
2022-10-04T19:36:14.712Z,8.70
2022-10-04T19:39:12.461Z,8.70
2022-10-04T19:41:57.118Z,8.70
2022-10-04T19:44:53.119Z,8.70
2022-10-04T19:47:20.598Z,8.70
2022-10-04T19:50:06.624Z,8.70
2022-10-04T19:52:58.107Z,8.80
2022-10-04T19:55:48.011Z,8.90
2022-10-04T19:58:38.368Z,8.90
2022-10-04T20:01:13.574Z,9.00
2022-10-04T20:03:41.000Z,9.10
2022-10-04T20:06:09.249Z,9.00
2022-10-04T20:09:11.659Z,9.20
2022-10-04T20:11:38.859Z,9.20
2022-10-04T20:14:08.547Z,9.40
2022-10-04T20:16:48.652Z,9.50
2022-10-04T20:19:28.133Z,9.60
2022-10-04T20:22:13.864Z,9.60
2022-10-04T20:24:49.404Z,9.60
2022-10-04T20:27:26.182Z,9.60
2022-10-04T20:29:53.231Z,9.70
2022-10-04T20:32:31.207Z,9.80
2022-10-04T20:34:59.755Z,9.70
2022-10-04T20:38:02.937Z,9.70
2022-10-04T20:40:43.381Z,9.70
2022-10-04T20:43:16.324Z,9.70
2022-10-04T20:45:48.313Z,9.70
2022-10-04T20:48:22.968Z,9.70
2022-10-04T20:50:50.993Z,9.70
2022-10-04T20:53:24.627Z,9.60
2022-10-04T20:56:08.243Z,9.50
2022-10-04T20:58:37.444Z,9.40
2022-10-04T21:01:20.611Z,9.30
2022-10-04T21:03:47.897Z,9.20
2022-10-04T21:06:15.442Z,9.20
2022-10-04T21:08:43.163Z,9.10
2022-10-04T21:11:20.627Z,9.10
2022-10-04T21:14:33.178Z,9.10
2022-10-04T21:17:03.413Z,9.10
2022-10-04T21:19:34.122Z,9.10
2022-10-04T21:22:04.170Z,9.00
2022-10-04T21:24:41.532Z,9.00
2022-10-04T21:27:11.037Z,9.00
2022-10-04T21:29:39.130Z,8.90
2022-10-04T21:32:06.856Z,8.80
2022-10-04T21:34:52.393Z,8.80
2022-10-04T21:37:21.058Z,8.80
2022-10-04T21:39:48.133Z,8.80
2022-10-04T21:42:15.672Z,8.80
2022-10-04T21:44:42.848Z,8.80
2022-10-04T21:47:10.529Z,8.70
2022-10-04T21:49:37.874Z,8.80
2022-10-04T21:52:05.175Z,8.70
2022-10-04T21:54:32.387Z,8.70
2022-10-04T21:56:59.351Z,8.70
2022-10-04T21:59:26.302Z,8.70
2022-10-04T22:01:53.307Z,8.70
2022-10-04T22:04:20.937Z,8.60
2022-10-04T22:06:49.057Z,8.60
2022-10-04T22:09:16.461Z,8.60
2022-10-04T22:11:43.407Z,8.60
2022-10-04T22:14:10.331Z,8.60
2022-10-04T22:16:37.412Z,8.60
2022-10-04T22:19:05.199Z,8.60
2022-10-04T22:21:32.453Z,8.50
2022-10-04T22:24:01.341Z,8.50
2022-10-04T22:26:29.547Z,8.50
2022-10-04T22:28:57.063Z,8.40
2022-10-04T22:31:29.313Z,8.40
2022-10-04T22:33:56.805Z,8.40
2022-10-04T22:36:39.853Z,8.30
2022-10-04T22:39:10.221Z,8.20
2022-10-04T22:41:43.977Z,8.20
2022-10-04T22:44:14.795Z,8.20
2022-10-04T22:46:45.608Z,8.10
2022-10-04T22:49:15.941Z,8.10
2022-10-04T22:51:45.220Z,8.20
2022-10-04T22:54:27.251Z,8.10
2022-10-04T22:56:54.506Z,8.20
2022-10-04T22:59:23.158Z,8.20
2022-10-04T23:01:52.915Z,8.20
2022-10-04T23:04:25.689Z,8.20
2022-10-04T23:06:53.521Z,8.20
2022-10-04T23:09:21.127Z,8.20
2022-10-04T23:11:48.385Z,8.30
2022-10-04T23:14:15.285Z,8.30
2022-10-04T23:16:43.683Z,8.20
2022-10-04T23:19:14.825Z,8.30
2022-10-04T23:21:45.873Z,8.30
2022-10-04T23:24:18.850Z,8.20
2022-10-04T23:26:49.308Z,8.30
2022-10-04T23:29:19.820Z,8.40
2022-10-04T23:31:47.620Z,8.30
2022-10-04T23:34:24.189Z,8.20
2022-10-04T23:36:52.495Z,8.30
2022-10-04T23:39:32.407Z,8.30
2022-10-04T23:41:59.873Z,8.20
2022-10-04T23:44:37.963Z,8.20
2022-10-04T23:47:14.325Z,8.30
2022-10-04T23:49:41.692Z,8.30
2022-10-04T23:52:35.940Z,8.30
2022-10-04T23:55:10.642Z,8.30
2022-10-04T23:57:37.782Z,8.30
